createdAt,value
2023-03-21T00:02:08.010Z,231737.00
2023-03-21T00:04:50.663Z,231737.00
2023-03-21T00:07:19.445Z,231737.00
2023-03-21T00:09:47.482Z,231737.00
2023-03-21T00:12:16.721Z,231737.00
2023-03-21T00:14:44.986Z,231737.00
2023-03-21T00:17:15.954Z,231737.00
2023-03-21T00:19:44.900Z,231737.00
2023-03-21T00:22:12.823Z,231737.00
2023-03-21T00:24:41.100Z,231737.00
2023-03-21T00:27:42.588Z,231737.00
2023-03-21T00:29:56.988Z,231737.00
2023-03-21T00:32:26.643Z,231737.00
2023-03-21T00:35:03.921Z,231737.00
2023-03-21T00:37:42.067Z,231737.00
2023-03-21T00:40:25.319Z,231737.00
2023-03-21T00:42:54.458Z,231737.00
2023-03-21T00:45:23.052Z,231737.00
2023-03-21T00:47:52.526Z,231737.00
2023-03-21T00:50:20.641Z,231737.00
2023-03-21T00:52:50.359Z,231737.00
2023-03-21T00:55:21.044Z,231737.00
2023-03-21T00:57:56.101Z,231737.00
2023-03-21T01:00:27.881Z,231737.00
2023-03-21T01:03:11.207Z,231737.00
2023-03-21T01:06:04.185Z,231737.00
2023-03-21T01:08:48.613Z,231737.00
2023-03-21T01:11:23.205Z,231737.00
2023-03-21T01:14:04.255Z,231737.00
2023-03-21T01:16:39.344Z,231737.00
2023-03-21T01:19:23.970Z,231737.00
2023-03-21T01:21:53.282Z,231737.00
2023-03-21T01:24:21.230Z,231737.00
2023-03-21T01:26:49.309Z,231737.00
2023-03-21T01:29:17.291Z,231737.00
2023-03-21T01:31:45.503Z,231737.00
2023-03-21T01:34:14.896Z,231737.00
2023-03-21T01:36:45.051Z,231737.00
2023-03-21T01:39:18.238Z,231737.00
2023-03-21T01:41:48.953Z,231737.00
2023-03-21T01:44:22.998Z,231737.00
2023-03-21T01:47:12.178Z,231737.00
2023-03-21T01:50:07.300Z,231737.00
2023-03-21T01:52:52.808Z,231737.00
2023-03-21T01:55:28.702Z,231737.00
2023-03-21T01:58:12.757Z,231737.00
2023-03-21T02:01:04.756Z,231737.00
2023-03-21T02:03:50.507Z,231737.00
2023-03-21T02:06:36.855Z,231737.00
2023-03-21T02:09:27.299Z,231737.00
2023-03-21T02:11:56.424Z,231737.00
2023-03-21T02:14:32.477Z,231737.00
2023-03-21T02:17:32.084Z,231737.00
2023-03-21T02:20:51.065Z,231737.00
2023-03-21T02:23:57.816Z,231737.00
2023-03-21T02:27:03.854Z,231737.00
2023-03-21T02:30:49.090Z,231737.00
2023-03-21T02:33:53.399Z,231737.00
2023-03-21T02:36:34.932Z,231737.00
2023-03-21T02:39:14.935Z,231737.00
2023-03-21T02:41:52.183Z,231737.00
2023-03-21T02:44:43.307Z,231737.00
2023-03-21T02:47:19.607Z,231737.00
2023-03-21T02:49:53.719Z,231737.00
2023-03-21T02:52:37.741Z,231737.00
2023-03-21T02:55:15.389Z,231737.00
2023-03-21T02:57:56.797Z,231737.00
2023-03-21T03:00:30.505Z,231737.00
2023-03-21T03:03:09.233Z,231737.00
2023-03-21T03:05:48.911Z,231737.00
2023-03-21T03:08:41.354Z,231737.00
2023-03-21T03:11:28.739Z,231737.00
2023-03-21T03:17:29.050Z,231737.00
2023-03-21T03:20:21.106Z,231737.00
2023-03-21T03:22:59.321Z,231737.00
2023-03-21T03:25:42.570Z,231737.00
2023-03-21T03:28:19.014Z,231737.00
2023-03-21T03:31:05.485Z,231737.00
2023-03-21T03:33:46.756Z,231737.00
2023-03-21T03:36:31.085Z,231737.00
2023-03-21T03:39:05.560Z,231737.00
2023-03-21T03:42:04.290Z,231737.00
2023-03-21T03:44:36.353Z,231737.00
2023-03-21T03:47:17.474Z,231737.00
2023-03-21T03:50:02.082Z,231737.00
2023-03-21T03:52:50.068Z,231737.00
2023-03-21T03:55:27.140Z,231737.00
2023-03-21T03:57:58.552Z,231737.00
2023-03-21T04:00:28.423Z,231737.00
2023-03-21T04:02:59.130Z,231737.00
2023-03-21T04:05:28.032Z,231737.00
2023-03-21T04:07:57.031Z,231737.00
2023-03-21T04:10:35.473Z,231737.00
2023-03-21T04:13:03.758Z,231737.00
2023-03-21T04:15:56.138Z,231737.00
2023-03-21T04:18:24.550Z,231737.00
2023-03-21T04:20:52.565Z,231737.00
2023-03-21T04:23:20.895Z,231737.00
2023-03-21T04:25:56.859Z,231737.00
2023-03-21T04:28:36.303Z,231737.00
2023-03-21T04:31:27.208Z,231737.00
2023-03-21T04:34:09.902Z,231737.00
2023-03-21T04:36:42.946Z,231737.00
2023-03-21T04:39:13.099Z,231737.00
2023-03-21T04:41:44.072Z,231737.00
2023-03-21T04:44:13.617Z,231737.00
2023-03-21T04:46:43.797Z,231737.00
2023-03-21T04:49:13.128Z,231737.00
2023-03-21T04:51:41.154Z,231737.00
2023-03-21T04:56:42.838Z,231737.00
2023-03-21T04:59:15.468Z,231737.00
2023-03-21T05:01:45.062Z,231737.00
2023-03-21T05:04:15.742Z,231737.00
2023-03-21T05:06:45.155Z,231737.00
2023-03-21T05:09:14.038Z,231737.00
2023-03-21T05:11:43.187Z,231737.00
2023-03-21T05:14:18.470Z,231737.00
2023-03-21T05:16:53.303Z,231737.00
2023-03-21T05:19:25.822Z,231737.00
2023-03-21T05:21:54.098Z,231737.00
2023-03-21T05:24:26.457Z,231737.00
2023-03-21T05:26:56.250Z,231737.00
2023-03-21T05:29:27.658Z,231737.00
2023-03-21T05:32:03.715Z,231737.00
2023-03-21T05:34:32.396Z,231737.00
2023-03-21T05:37:01.416Z,231737.00
2023-03-21T05:39:43.699Z,231737.00
2023-03-21T05:42:18.580Z,231737.00
2023-03-21T05:44:48.286Z,231737.00
2023-03-21T05:47:20.174Z,231737.00
2023-03-21T05:49:49.792Z,231737.00
2023-03-21T05:52:18.197Z,231737.00
2023-03-21T05:54:47.188Z,231737.00
2023-03-21T05:57:16.085Z,231737.00
2023-03-21T05:59:53.586Z,231737.00
2023-03-21T06:02:23.588Z,231737.00
2023-03-21T06:04:52.290Z,231737.00
2023-03-21T06:07:22.751Z,231737.00
2023-03-21T06:09:51.462Z,231737.00
2023-03-21T06:12:19.857Z,231737.00
2023-03-21T06:15:12.976Z,231737.00
2023-03-21T06:17:54.262Z,231737.00
2023-03-21T06:20:22.293Z,231737.00
2023-03-21T06:22:54.766Z,231737.00
2023-03-21T06:25:23.279Z,231737.00
2023-03-21T06:27:51.303Z,231737.00
2023-03-21T06:30:21.101Z,231737.00
2023-03-21T06:33:07.013Z,231737.00
2023-03-21T06:35:35.142Z,231737.00
2023-03-21T06:38:03.571Z,231737.00
2023-03-21T06:40:34.113Z,231737.00
2023-03-21T06:43:02.837Z,231737.00
2023-03-21T06:45:31.526Z,231737.00
2023-03-21T06:47:59.533Z,231737.00
2023-03-21T06:50:41.792Z,231737.00
2023-03-21T06:53:09.737Z,231737.00
2023-03-21T06:55:58.218Z,231737.00
2023-03-21T06:58:27.062Z,231737.00
2023-03-21T07:00:55.173Z,231737.00
2023-03-21T07:03:23.524Z,231737.00
2023-03-21T07:05:53.743Z,231737.00
2023-03-21T07:08:23.898Z,231737.00
2023-03-21T07:10:56.479Z,231737.00
2023-03-21T07:13:25.038Z,231737.00
2023-03-21T07:15:56.507Z,231737.00
2023-03-21T07:18:26.546Z,231737.00
2023-03-21T07:20:55.816Z,231737.00
2023-03-21T07:23:27.048Z,231737.00
2023-03-21T07:25:56.632Z,231737.00
2023-03-21T07:28:25.588Z,231737.00
2023-03-21T07:30:56.835Z,101276.00
2023-03-21T07:33:26.179Z,101191.00
2023-03-21T07:36:00.075Z,101157.00
2023-03-21T07:38:30.959Z,101188.00
2023-03-21T07:41:01.352Z,101200.00
2023-03-21T07:43:32.748Z,101278.00
2023-03-21T07:46:01.206Z,101160.00
2023-03-21T07:48:30.511Z,101125.00
2023-03-21T07:51:00.087Z,101135.00
2023-03-21T07:53:29.042Z,101182.00
2023-03-21T07:55:57.462Z,101226.00
2023-03-21T07:58:26.674Z,101240.00
2023-03-21T08:00:56.498Z,101266.00
2023-03-21T08:03:26.327Z,101188.00
2023-03-21T08:05:54.392Z,101249.00
2023-03-21T08:08:23.709Z,101192.00
2023-03-21T08:10:51.650Z,101137.00
2023-03-21T08:13:19.617Z,101149.00
2023-03-21T08:15:47.613Z,101338.00
2023-03-21T08:18:15.574Z,101292.00
2023-03-21T08:20:43.606Z,101271.00
2023-03-21T08:23:11.549Z,101178.00
2023-03-21T08:25:40.991Z,101011.00
2023-03-21T08:28:08.961Z,100998.00
2023-03-21T08:30:38.857Z,100979.00
2023-03-21T08:33:07.520Z,100922.00
2023-03-21T08:35:35.705Z,100947.00
2023-03-21T08:38:04.765Z,100925.00
2023-03-21T08:40:32.781Z,100869.00
2023-03-21T08:43:02.085Z,100892.00
2023-03-21T08:45:30.785Z,100885.00
2023-03-21T08:47:58.849Z,101071.00
2023-03-21T08:50:29.560Z,101023.00
2023-03-21T08:52:57.599Z,100970.00
2023-03-21T08:55:25.755Z,100950.00
2023-03-21T08:57:53.743Z,100949.00
2023-03-21T09:00:23.817Z,100900.00
2023-03-21T09:02:54.219Z,100942.00
2023-03-21T09:05:25.792Z,100942.00
2023-03-21T09:07:54.257Z,100924.00
2023-03-21T09:10:24.291Z,100905.00
2023-03-21T09:12:55.472Z,100884.00
2023-03-21T09:15:28.940Z,100898.00
2023-03-21T09:17:58.642Z,100948.00
2023-03-21T09:20:33.023Z,100883.00
2023-03-21T09:23:01.727Z,100871.00
2023-03-21T09:25:31.138Z,100915.00
2023-03-21T09:28:00.497Z,100893.00
2023-03-21T09:30:31.404Z,100893.00
2023-03-21T09:33:01.332Z,100913.00
2023-03-21T09:35:30.658Z,100876.00
2023-03-21T09:38:00.536Z,100908.00
2023-03-21T09:40:52.661Z,100896.00
2023-03-21T09:43:39.732Z,100900.00
2023-03-21T09:46:18.566Z,100906.00
2023-03-21T09:48:57.836Z,100883.00
2023-03-21T09:51:32.681Z,100873.00
2023-03-21T09:54:08.729Z,100997.00
2023-03-21T09:56:42.368Z,100986.00
2023-03-21T09:59:22.898Z,100936.00
2023-03-21T10:01:52.996Z,100865.00
2023-03-21T10:04:22.325Z,100891.00
2023-03-21T10:06:59.138Z,100868.00
2023-03-21T10:09:32.528Z,100835.00
2023-03-21T10:12:08.249Z,100846.00
2023-03-21T10:14:41.262Z,100890.00
2023-03-21T10:17:29.653Z,100974.00
2023-03-21T10:20:13.233Z,100971.00
2023-03-21T10:22:41.915Z,101344.00
2023-03-21T10:25:17.249Z,101293.00
2023-03-21T10:27:47.053Z,101168.00
2023-03-21T10:30:29.233Z,101369.00
2023-03-21T10:33:05.593Z,101134.00
2023-03-21T10:35:37.326Z,101130.00
2023-03-21T10:38:08.096Z,101012.00
2023-03-21T10:40:35.979Z,101024.00
2023-03-21T10:43:21.741Z,101050.00
2023-03-21T10:45:50.267Z,101023.00
2023-03-21T10:48:19.856Z,101039.00
2023-03-21T10:50:51.488Z,101026.00
2023-03-21T10:53:23.446Z,101042.00
2023-03-21T10:55:56.968Z,101063.00
2023-03-21T10:58:30.438Z,101015.00
2023-03-21T11:01:02.506Z,101001.00
2023-03-21T11:03:37.124Z,101006.00
2023-03-21T11:06:12.705Z,100993.00
2023-03-21T11:08:44.854Z,100995.00
2023-03-21T11:11:22.495Z,101025.00
2023-03-21T11:13:59.636Z,100996.00
2023-03-21T11:16:37.243Z,101005.00
2023-03-21T11:19:16.091Z,101007.00
2023-03-21T11:21:45.711Z,100987.00
2023-03-21T11:24:18.217Z,101031.00
2023-03-21T11:26:50.729Z,101173.00
2023-03-21T11:29:31.178Z,101100.00
2023-03-21T11:32:02.552Z,101071.00
2023-03-21T11:34:48.575Z,101151.00
2023-03-21T11:37:26.160Z,101101.00
2023-03-21T11:40:09.351Z,101153.00
2023-03-21T11:42:44.885Z,101142.00
2023-03-21T11:45:17.356Z,100963.00
2023-03-21T11:47:46.189Z,100963.00
2023-03-21T11:50:33.872Z,100964.00
2023-03-21T11:53:26.610Z,100947.00
2023-03-21T11:56:19.721Z,100963.00
2023-03-21T11:59:05.623Z,101003.00
2023-03-21T12:01:46.756Z,101072.00
2023-03-21T12:04:29.011Z,100963.00
2023-03-21T12:07:06.800Z,100909.00
2023-03-21T12:09:42.605Z,100849.00
2023-03-21T12:12:39.208Z,100888.00
2023-03-21T12:15:20.765Z,100864.00
2023-03-21T12:18:04.436Z,100866.00
2023-03-21T12:20:42.883Z,100852.00
2023-03-21T12:23:40.665Z,100845.00
2023-03-21T12:26:23.283Z,100856.00
2023-03-21T12:29:30.066Z,100836.00
2023-03-21T12:32:16.505Z,100846.00
2023-03-21T12:35:09.229Z,100855.00
2023-03-21T12:37:53.850Z,100828.00
2023-03-21T12:40:45.397Z,100827.00
2023-03-21T12:43:45.272Z,100836.00
2023-03-21T12:46:22.277Z,100844.00
2023-03-21T12:48:55.063Z,100844.00
2023-03-21T12:51:32.339Z,100874.00
2023-03-21T12:54:15.845Z,100876.00
2023-03-21T12:56:53.849Z,100814.00
2023-03-21T12:59:33.262Z,100823.00
2023-03-21T13:02:15.442Z,100814.00
2023-03-21T13:04:53.141Z,100811.00
2023-03-21T13:07:25.147Z,100809.00
2023-03-21T13:09:55.230Z,100793.00
2023-03-21T13:12:49.185Z,100811.00
2023-03-21T13:15:36.507Z,100806.00
2023-03-21T13:18:18.161Z,100784.00
2023-03-21T13:20:51.589Z,100804.00
2023-03-21T13:23:20.412Z,100799.00
2023-03-21T13:25:51.293Z,100828.00
2023-03-21T13:28:26.546Z,100825.00
2023-03-21T13:31:15.338Z,100862.00
2023-03-21T13:33:46.721Z,100825.00
2023-03-21T13:36:19.541Z,100797.00
2023-03-21T13:38:53.061Z,100811.00
2023-03-21T13:41:30.803Z,100849.00
2023-03-21T13:44:17.238Z,100874.00
2023-03-21T13:46:55.064Z,100890.00
2023-03-21T13:49:34.490Z,100731.00
2023-03-21T13:52:22.302Z,100680.00
2023-03-21T13:54:57.617Z,100677.00
2023-03-21T13:57:40.696Z,100679.00
2023-03-21T14:00:29.417Z,100683.00
2023-03-21T14:03:02.934Z,100667.00
2023-03-21T14:05:31.771Z,100674.00
2023-03-21T14:08:15.456Z,100677.00
2023-03-21T14:10:53.371Z,100652.00
2023-03-21T14:13:26.556Z,100682.00
2023-03-21T14:16:06.756Z,100692.00
2023-03-21T14:18:54.086Z,100679.00
2023-03-21T14:21:26.589Z,100685.00
2023-03-21T14:24:00.508Z,100684.00
2023-03-21T14:26:33.647Z,100663.00
2023-03-21T14:29:07.366Z,100663.00
2023-03-21T14:31:42.574Z,100671.00
2023-03-21T14:34:12.576Z,100658.00
2023-03-21T14:36:45.774Z,100642.00
2023-03-21T14:39:23.277Z,100642.00
2023-03-21T14:41:54.161Z,100652.00
2023-03-21T14:44:28.430Z,100659.00
2023-03-21T14:47:06.226Z,100667.00
2023-03-21T14:49:36.280Z,100671.00
2023-03-21T14:52:08.115Z,100666.00
2023-03-21T14:54:38.153Z,100659.00
2023-03-21T14:57:11.572Z,100661.00
2023-03-21T14:59:42.017Z,100669.00
2023-03-21T15:02:19.169Z,100653.00
2023-03-21T15:04:51.164Z,100682.00
2023-03-21T15:07:29.349Z,100667.00
2023-03-21T15:10:03.429Z,100669.00
2023-03-21T15:12:31.988Z,100665.00
2023-03-21T15:15:01.667Z,100666.00
2023-03-21T15:17:31.686Z,100673.00
2023-03-21T15:19:59.929Z,100672.00
2023-03-21T15:22:35.470Z,100680.00
2023-03-21T15:25:08.176Z,100666.00
2023-03-21T15:27:42.189Z,100674.00
2023-03-21T15:30:23.124Z,100692.00
2023-03-21T15:32:52.834Z,100702.00
2023-03-21T15:35:27.800Z,100696.00
2023-03-21T15:37:58.678Z,100702.00
2023-03-21T15:40:29.785Z,100692.00
2023-03-21T15:43:14.881Z,100696.00
2023-03-21T15:45:49.220Z,100687.00
2023-03-21T15:48:23.158Z,100671.00
2023-03-21T15:51:01.343Z,100695.00
2023-03-21T15:53:33.741Z,100689.00
2023-03-21T15:56:05.943Z,100703.00
2023-03-21T15:58:39.326Z,100711.00
2023-03-21T16:01:13.554Z,100743.00
2023-03-21T16:03:49.645Z,100850.00
2023-03-21T16:06:22.698Z,100785.00
2023-03-21T16:08:53.361Z,100789.00
2023-03-21T16:11:28.228Z,100792.00
2023-03-21T16:14:01.061Z,100879.00
2023-03-21T16:16:31.569Z,100331.00
2023-03-21T16:19:02.663Z,100280.00
2023-03-21T16:21:34.149Z,100331.00
2023-03-21T16:24:02.634Z,100285.00
2023-03-21T16:26:33.712Z,100355.00
2023-03-21T16:29:01.657Z,100334.00
2023-03-21T16:31:32.844Z,100297.00
2023-03-21T16:34:03.878Z,100301.00
2023-03-21T16:36:36.522Z,100474.00
2023-03-21T16:39:18.053Z,100595.00
2023-03-21T16:41:50.470Z,100607.00
2023-03-21T16:44:21.099Z,100610.00
2023-03-21T16:46:49.515Z,100559.00
2023-03-21T16:49:26.746Z,100517.00
2023-03-21T16:51:57.001Z,100630.00
2023-03-21T16:54:25.719Z,100487.00
2023-03-21T16:56:57.294Z,100334.00
2023-03-21T16:59:25.358Z,100361.00
2023-03-21T17:01:53.305Z,100377.00
2023-03-21T17:04:24.309Z,100387.00
2023-03-21T17:06:54.693Z,100387.00
2023-03-21T17:09:26.255Z,100415.00
2023-03-21T17:11:54.329Z,100477.00
2023-03-21T17:14:23.039Z,100569.00
2023-03-21T17:16:51.028Z,100397.00
2023-03-21T17:19:23.902Z,100428.00
2023-03-21T17:21:51.853Z,100453.00
2023-03-21T17:24:19.919Z,100553.00
2023-03-21T17:26:47.825Z,100422.00
2023-03-21T17:29:16.783Z,100435.00
2023-03-21T17:31:47.422Z,100419.00
2023-03-21T17:34:15.647Z,100427.00
2023-03-21T17:36:48.777Z,100454.00
2023-03-21T17:39:21.431Z,100457.00
2023-03-21T17:41:49.993Z,100504.00
2023-03-21T17:44:17.898Z,100561.00
2023-03-21T17:46:46.467Z,100512.00
2023-03-21T17:49:16.555Z,100518.00
2023-03-21T17:51:46.895Z,100830.00
2023-03-21T17:54:15.041Z,100861.00
2023-03-21T17:56:42.957Z,100805.00
2023-03-21T17:59:14.577Z,100753.00
2023-03-21T18:01:42.871Z,100833.00
2023-03-21T18:04:11.078Z,100868.00
2023-03-21T18:06:39.108Z,100826.00
2023-03-21T18:09:11.766Z,100852.00
2023-03-21T18:11:41.476Z,100788.00
2023-03-21T18:14:19.507Z,100788.00
2023-03-21T18:16:54.138Z,100766.00
2023-03-21T18:19:22.067Z,100766.00
2023-03-21T18:21:50.375Z,100728.00
2023-03-21T18:24:19.632Z,100720.00
2023-03-21T18:26:47.797Z,100761.00
2023-03-21T18:32:08.421Z,100768.00
2023-03-21T18:34:39.387Z,100769.00
2023-03-21T18:37:08.400Z,100491.00
2023-03-21T18:39:42.318Z,100475.00
2023-03-21T18:42:16.796Z,100519.00
2023-03-21T18:44:48.032Z,100509.00
2023-03-21T18:47:19.665Z,100499.00
2023-03-21T18:52:40.897Z,100652.00
2023-03-21T18:55:11.844Z,100487.00
2023-03-21T18:57:43.437Z,100522.00
2023-03-21T19:00:17.498Z,100524.00
2023-03-21T19:02:50.836Z,100538.00
2023-03-21T19:05:22.718Z,100596.00
2023-03-21T19:07:52.878Z,100645.00
2023-03-21T19:10:24.514Z,100552.00
2023-03-21T19:12:54.685Z,100536.00
2023-03-21T19:15:24.460Z,100546.00
2023-03-21T19:20:47.501Z,100593.00
2023-03-21T19:23:17.277Z,100462.00
2023-03-21T19:25:46.964Z,100467.00
2023-03-21T19:28:14.907Z,100482.00
2023-03-21T19:30:49.904Z,100523.00
2023-03-21T19:33:19.854Z,100543.00
2023-03-21T19:35:50.290Z,100513.00
2023-03-21T19:38:18.264Z,100559.00
2023-03-21T19:40:50.628Z,100565.00
2023-03-21T19:43:32.320Z,100521.00
2023-03-21T19:46:01.669Z,100489.00
2023-03-21T19:48:30.678Z,100624.00
2023-03-21T19:51:26.729Z,100590.00
2023-03-21T19:53:51.087Z,100592.00
2023-03-21T19:56:24.441Z,100649.00
2023-03-21T19:58:54.639Z,100648.00
2023-03-21T20:01:24.009Z,100761.00
2023-03-21T20:03:52.586Z,100673.00
2023-03-21T20:06:22.191Z,100556.00
2023-03-21T20:09:30.818Z,100581.00
2023-03-21T20:11:40.489Z,100583.00
2023-03-21T20:14:08.470Z,100567.00
2023-03-21T20:16:42.989Z,100544.00
2023-03-21T20:19:16.000Z,100510.00
2023-03-21T20:21:52.860Z,100525.00
2023-03-21T20:24:24.534Z,100592.00
2023-03-21T20:26:54.929Z,100689.00
2023-03-21T20:32:11.976Z,100606.00
2023-03-21T20:34:40.331Z,100596.00
2023-03-21T20:37:08.341Z,100561.00
2023-03-21T20:39:36.537Z,100582.00
2023-03-21T20:42:06.825Z,100579.00
2023-03-21T20:44:55.966Z,100590.00
2023-03-21T20:47:23.586Z,100606.00
2023-03-21T20:49:51.486Z,100655.00
2023-03-21T20:55:09.136Z,100635.00
2023-03-21T20:57:39.083Z,100550.00
2023-03-21T21:00:15.064Z,100784.00
2023-03-21T21:02:45.745Z,100649.00
2023-03-21T21:05:27.484Z,100697.00
2023-03-21T21:07:56.449Z,100690.00
2023-03-21T21:10:25.827Z,100659.00
2023-03-21T21:12:55.558Z,100655.00
2023-03-21T21:15:23.662Z,100764.00
2023-03-21T21:18:08.561Z,100796.00
2023-03-21T21:20:39.090Z,100730.00
2023-03-21T21:23:09.719Z,100730.00
2023-03-21T21:25:37.802Z,100721.00
2023-03-21T21:28:09.334Z,100732.00
2023-03-21T21:30:41.194Z,100706.00
2023-03-21T21:33:09.477Z,100768.00
2023-03-21T21:35:38.478Z,100736.00
2023-03-21T21:38:08.968Z,100744.00
2023-03-21T21:40:37.321Z,100821.00
2023-03-21T21:43:06.731Z,100859.00
2023-03-21T21:45:34.858Z,100681.00
2023-03-21T21:48:02.975Z,100656.00
2023-03-21T21:50:30.912Z,100635.00
2023-03-21T21:53:03.534Z,100607.00
2023-03-21T21:55:31.971Z,100653.00
2023-03-21T21:58:00.495Z,100590.00
2023-03-21T22:00:32.340Z,100618.00
2023-03-21T22:03:02.342Z,100600.00
2023-03-21T22:05:30.540Z,100604.00
2023-03-21T22:07:58.634Z,100569.00
2023-03-21T22:10:28.230Z,100604.00
2023-03-21T22:12:56.218Z,100601.00
2023-03-21T22:15:24.136Z,100640.00
2023-03-21T22:17:53.494Z,100632.00
2023-03-21T22:20:22.750Z,100595.00
2023-03-21T22:22:51.347Z,100596.00
2023-03-21T22:25:19.548Z,100604.00
2023-03-21T22:27:47.433Z,100597.00
2023-03-21T22:30:18.592Z,100592.00
2023-03-21T22:33:02.618Z,100649.00
2023-03-21T22:35:38.049Z,100606.00
2023-03-21T22:38:11.567Z,100716.00
2023-03-21T22:40:39.794Z,100703.00
2023-03-21T22:43:08.700Z,100718.00
2023-03-21T22:45:36.621Z,100539.00
2023-03-21T22:48:06.229Z,100624.00
2023-03-21T22:50:34.224Z,100655.00
2023-03-21T22:53:03.692Z,100680.00
2023-03-21T22:55:31.602Z,100652.00
2023-03-21T22:57:59.483Z,100645.00
2023-03-21T23:00:27.822Z,100627.00
2023-03-21T23:02:57.103Z,100651.00
2023-03-21T23:05:25.003Z,100617.00
2023-03-21T23:07:53.364Z,100648.00
2023-03-21T23:10:22.915Z,100655.00
2023-03-21T23:12:51.709Z,100664.00
2023-03-21T23:15:19.861Z,100668.00
2023-03-21T23:17:47.984Z,100665.00
2023-03-21T23:20:16.423Z,100648.00
2023-03-21T23:22:44.374Z,100660.00
2023-03-21T23:25:12.767Z,100945.00
2023-03-21T23:27:42.032Z,101083.00
2023-03-21T23:30:10.911Z,100535.00
2023-03-21T23:32:38.919Z,100511.00
2023-03-21T23:35:08.653Z,100514.00
2023-03-21T23:37:36.668Z,100589.00
2023-03-21T23:40:06.915Z,100805.00
2023-03-21T23:42:35.805Z,100806.00
2023-03-21T23:45:06.499Z,100797.00
2023-03-21T23:47:34.562Z,100855.00
2023-03-21T23:50:02.517Z,100767.00
2023-03-21T23:52:30.428Z,100751.00
2023-03-21T23:54:58.311Z,100746.00
2023-03-21T23:57:27.063Z,100739.00
2023-03-21T23:59:55.944Z,100726.00
